sensor_id;sensor_type;location;lat;lon;timestamp;pressure;altitude;pressure_sealevel;temperature;humidity
6851;BME280;3464;42.728;23.296;2023-02-12T15:00:45;96523.45;;;7.84;63.88
6851;BME280;3464;42.728;23.296;2023-02-12T15:04:06;96527.78;;;8.76;59.82
6851;BME280;3464;42.728;23.296;2023-02-12T15:06:14;96527.62;;;9.07;57.88
6851;BME280;3464;42.728;23.296;2023-02-12T15:08:50;96537.57;;;8.93;57.80
6851;BME280;3464;42.728;23.296;2023-02-12T15:12:05;96533.80;;;8.81;57.82
6851;BME280;3464;42.728;23.296;2023-02-12T15:14:19;96539.74;;;8.83;57.50
6851;BME280;3464;42.728;23.296;2023-02-12T15:16:54;96543.67;;;8.76;57.54
6851;BME280;3464;42.728;23.296;2023-02-12T15:19:33;96555.59;;;8.59;57.65
6851;BME280;3464;42.728;23.296;2023-02-12T15:21:57;96559.54;;;8.64;57.49
6851;BME280;3464;42.728;23.296;2023-02-12T15:24:25;96564.67;;;8.44;57.89
6851;BME280;3464;42.728;23.296;2023-02-12T15:26:53;96570.19;;;8.25;58.50
6851;BME280;3464;42.728;23.296;2023-02-12T15:29:21;96576.41;;;8.45;58.28
6851;BME280;3464;42.728;23.296;2023-02-12T15:31:51;96587.77;;;8.36;58.09
6851;BME280;3464;42.728;23.296;2023-02-12T15:34:18;96585.28;;;8.05;59.00
6851;BME280;3464;42.728;23.296;2023-02-12T15:36:43;96582.98;;;8.00;59.29
6851;BME280;3464;42.728;23.296;2023-02-12T15:39:14;96591.38;;;8.00;59.37
6851;BME280;3464;42.728;23.296;2023-02-12T15:41:37;96592.09;;;7.98;59.32
6851;BME280;3464;42.728;23.296;2023-02-12T15:44:35;96595.02;;;8.08;59.18
6851;BME280;3464;42.728;23.296;2023-02-12T15:46:59;96598.21;;;8.15;58.76
6851;BME280;3464;42.728;23.296;2023-02-12T15:49:31;96598.91;;;7.91;59.26
6851;BME280;3464;42.728;23.296;2023-02-12T15:51:56;96601.17;;;7.85;59.52
6851;BME280;3464;42.728;23.296;2023-02-12T15:54:23;96608.50;;;8.11;58.95
6851;BME280;3464;42.728;23.296;2023-02-12T15:56:50;96610.81;;;8.06;58.89
6851;BME280;3464;42.728;23.296;2023-02-12T15:59:20;96618.22;;;8.14;59.00
6851;BME280;3464;42.728;23.296;2023-02-12T16:01:56;96626.88;;;8.11;59.17
6851;BME280;3464;42.728;23.296;2023-02-12T16:04:22;96630.00;;;7.95;59.40
6851;BME280;3464;42.728;23.296;2023-02-12T16:06:50;96628.98;;;7.80;60.42
6851;BME280;3464;42.728;23.296;2023-02-12T16:09:21;96640.50;;;7.36;61.08
6851;BME280;3464;42.728;23.296;2023-02-12T16:11:45;96639.37;;;7.39;61.77
6851;BME280;3464;42.728;23.296;2023-02-12T16:14:22;96638.50;;;7.58;61.02
6851;BME280;3464;42.728;23.296;2023-02-12T16:16:49;96640.25;;;7.60;61.27
6851;BME280;3464;42.728;23.296;2023-02-12T16:19:17;96642.00;;;7.52;61.75
6851;BME280;3464;42.728;23.296;2023-02-12T16:21:43;96653.17;;;7.79;61.33
6851;BME280;3464;42.728;23.296;2023-02-12T16:24:34;96657.42;;;7.61;61.39
6851;BME280;3464;42.728;23.296;2023-02-12T16:27:17;96662.15;;;7.74;61.33
6851;BME280;3464;42.728;23.296;2023-02-12T16:29:44;96666.83;;;7.68;61.38
6851;BME280;3464;42.728;23.296;2023-02-12T16:32:24;96673.86;;;7.84;61.05
6851;BME280;3464;42.728;23.296;2023-02-12T16:34:37;96676.98;;;7.89;61.00
6851;BME280;3464;42.728;23.296;2023-02-12T16:55:34;96696.28;;;8.21;59.95
6851;BME280;3464;42.728;23.296;2023-02-12T16:58:01;96694.34;;;8.45;59.23
6851;BME280;3464;42.728;23.296;2023-02-12T17:00:27;96697.98;;;8.42;59.13
6851;BME280;3464;42.728;23.296;2023-02-12T17:02:54;96709.20;;;8.50;58.88
6851;BME280;3464;42.728;23.296;2023-02-12T17:05:21;96715.44;;;8.39;59.06
6851;BME280;3464;42.728;23.296;2023-02-12T17:07:48;96726.59;;;8.35;59.25
6851;BME280;3464;42.728;23.296;2023-02-12T17:10:15;96724.96;;;8.26;59.55
6851;BME280;3464;42.728;23.296;2023-02-12T17:18:57;96741.69;;;7.68;61.25
6851;BME280;3464;42.728;23.296;2023-02-12T17:21:25;96744.81;;;7.63;61.39
6851;BME280;3464;42.728;23.296;2023-02-12T17:23:52;96750.64;;;7.63;61.39
6851;BME280;3464;42.728;23.296;2023-02-12T17:26:20;96747.91;;;7.97;60.30
6851;BME280;3464;42.728;23.296;2023-02-12T17:28:46;96756.56;;;8.03;60.08
6851;BME280;3464;42.728;23.296;2023-02-12T17:31:13;96759.72;;;8.18;59.59
6851;BME280;3464;42.728;23.296;2023-02-12T17:33:39;96762.25;;;7.99;59.90
6851;BME280;3464;42.728;23.296;2023-02-12T17:36:06;96771.28;;;7.96;59.98
6851;BME280;3464;42.728;23.296;2023-02-12T17:38:33;96769.04;;;8.02;60.21
6851;BME280;3464;42.728;23.296;2023-02-12T17:40:59;96768.70;;;8.43;58.83
6851;BME280;3464;42.728;23.296;2023-02-12T17:43:26;96764.80;;;8.50;58.66
6851;BME280;3464;42.728;23.296;2023-02-12T17:45:52;96778.80;;;8.65;58.17
6851;BME280;3464;42.728;23.296;2023-02-12T17:48:19;96771.91;;;9.02;57.37
6851;BME280;3464;42.728;23.296;2023-02-12T17:50:45;96782.84;;;8.93;57.47
6851;BME280;3464;42.728;23.296;2023-02-12T17:53:12;96781.19;;;8.42;58.60
6851;BME280;3464;42.728;23.296;2023-02-12T17:55:39;96782.97;;;8.24;59.13
6851;BME280;3464;42.728;23.296;2023-02-12T17:58:05;96785.11;;;8.35;58.66
6851;BME280;3464;42.728;23.296;2023-02-12T18:00:32;96792.58;;;8.15;59.18
6851;BME280;3464;42.728;23.296;2023-02-12T18:02:59;96789.09;;;8.02;60.37
6851;BME280;3464;42.728;23.296;2023-02-12T18:05:26;96793.23;;;7.81;60.52
6851;BME280;3464;42.728;23.296;2023-02-12T18:07:53;96788.98;;;7.80;60.46
6851;BME280;3464;42.728;23.296;2023-02-12T18:10:19;96789.00;;;7.80;60.83
6851;BME280;3464;42.728;23.296;2023-02-12T18:12:46;96792.72;;;7.70;60.88
6851;BME280;3464;42.728;23.296;2023-02-12T18:15:12;96788.11;;;7.79;60.89
6851;BME280;3464;42.728;23.296;2023-02-12T18:17:40;96787.55;;;7.85;60.97
6851;BME280;3464;42.728;23.296;2023-02-12T18:20:07;96787.04;;;7.83;60.86
6851;BME280;3464;42.728;23.296;2023-02-12T18:22:34;96795.45;;;7.66;61.20
6851;BME280;3464;42.728;23.296;2023-02-12T18:25:01;96792.70;;;7.51;61.68
6851;BME280;3464;42.728;23.296;2023-02-12T18:27:27;96789.08;;;7.54;61.93
6851;BME280;3464;42.728;23.296;2023-02-12T18:29:54;96790.56;;;7.50;61.95
6851;BME280;3464;42.728;23.296;2023-02-12T18:32:20;96796.09;;;7.71;61.56
6851;BME280;3464;42.728;23.296;2023-02-12T18:34:48;96795.67;;;7.42;62.10
6851;BME280;3464;42.728;23.296;2023-02-12T18:37:15;96803.50;;;7.59;62.21
6851;BME280;3464;42.728;23.296;2023-02-12T18:39:42;96802.16;;;7.29;62.60
6851;BME280;3464;42.728;23.296;2023-02-12T18:42:08;96799.79;;;7.51;62.34
6851;BME280;3464;42.728;23.296;2023-02-12T18:44:35;96803.28;;;7.26;62.34
6851;BME280;3464;42.728;23.296;2023-02-12T18:47:03;96804.33;;;7.12;62.98
6851;BME280;3464;42.728;23.296;2023-02-12T18:49:30;96812.16;;;7.37;62.76
6851;BME280;3464;42.728;23.296;2023-02-12T18:51:57;96823.19;;;7.60;62.00
6851;BME280;3464;42.728;23.296;2023-02-12T18:54:24;96829.31;;;7.57;61.69
6851;BME280;3464;42.728;23.296;2023-02-12T18:56:51;96834.92;;;7.70;61.33
6851;BME280;3464;42.728;23.296;2023-02-12T18:59:18;96832.63;;;7.85;60.69
6851;BME280;3464;42.728;23.296;2023-02-12T19:01:48;96834.60;;;7.81;60.78
6851;BME280;3464;42.728;23.296;2023-02-12T19:04:16;96835.22;;;7.77;60.84
6851;BME280;3464;42.728;23.296;2023-02-12T19:06:44;96836.61;;;7.80;60.67
6851;BME280;3464;42.728;23.296;2023-02-12T19:09:10;96843.65;;;7.87;60.58
6851;BME280;3464;42.728;23.296;2023-02-12T19:11:36;96847.69;;;7.75;60.89
6851;BME280;3464;42.728;23.296;2023-02-12T19:14:03;96848.28;;;7.70;60.94
6851;BME280;3464;42.728;23.296;2023-02-12T19:16:29;96850.26;;;7.77;60.71
6851;BME280;3464;42.728;23.296;2023-02-12T19:18:56;96847.41;;;7.69;60.97
6851;BME280;3464;42.728;23.296;2023-02-12T19:21:24;96852.35;;;7.68;61.03
6851;BME280;3464;42.728;23.296;2023-02-12T19:23:52;96840.39;;;7.71;60.92
6851;BME280;3464;42.728;23.296;2023-02-12T19:26:17;96838.97;;;7.58;61.17
6851;BME280;3464;42.728;23.296;2023-02-12T19:28:44;96845.73;;;7.60;61.14
6851;BME280;3464;42.728;23.296;2023-02-12T19:31:13;96848.66;;;7.69;61.10
6851;BME280;3464;42.728;23.296;2023-02-12T19:33:39;96836.52;;;7.68;60.85
6851;BME280;3464;42.728;23.296;2023-02-12T19:36:06;96848.91;;;7.84;60.41
6851;BME280;3464;42.728;23.296;2023-02-12T19:38:33;96849.98;;;7.71;60.67
6851;BME280;3464;42.728;23.296;2023-02-12T19:41:04;96856.64;;;7.60;60.90
6851;BME280;3464;42.728;23.296;2023-02-12T19:43:31;96854.69;;;7.18;61.92
6851;BME280;3464;42.728;23.296;2023-02-12T19:46:01;96867.02;;;7.06;62.65
6851;BME280;3464;42.728;23.296;2023-02-12T19:48:27;96866.94;;;7.13;62.65
6851;BME280;3464;42.728;23.296;2023-02-12T19:50:54;96866.66;;;6.98;63.13
6851;BME280;3464;42.728;23.296;2023-02-12T19:53:20;96869.95;;;6.81;63.71
6851;BME280;3464;42.728;23.296;2023-02-12T19:55:47;96872.37;;;6.70;63.71
6851;BME280;3464;42.728;23.296;2023-02-12T19:58:13;96875.22;;;6.60;64.05
6851;BME280;3464;42.728;23.296;2023-02-12T20:00:40;96877.75;;;6.52;64.46
6851;BME280;3464;42.728;23.296;2023-02-12T20:03:06;96882.16;;;6.24;65.19
6851;BME280;3464;42.728;23.296;2023-02-12T20:05:34;96884.17;;;6.23;66.55
6851;BME280;3464;42.728;23.296;2023-02-12T20:08:00;96893.70;;;6.46;65.55
6851;BME280;3464;42.728;23.296;2023-02-12T20:10:27;96894.57;;;5.99;67.27
6851;BME280;3464;42.728;23.296;2023-02-12T20:12:53;96890.75;;;5.89;67.90
6851;BME280;3464;42.728;23.296;2023-02-12T20:15:20;96884.75;;;6.10;67.39
6851;BME280;3464;42.728;23.296;2023-02-12T20:17:46;96888.37;;;5.83;68.30
6851;BME280;3464;42.728;23.296;2023-02-12T20:20:13;96889.14;;;6.14;67.20
6851;BME280;3464;42.728;23.296;2023-02-12T20:22:40;96894.38;;;6.03;67.58
6851;BME280;3464;42.728;23.296;2023-02-12T20:25:07;96892.71;;;5.72;68.87
6851;BME280;3464;42.728;23.296;2023-02-12T20:27:33;96896.11;;;5.81;68.69
6851;BME280;3464;42.728;23.296;2023-02-12T20:30:00;96894.13;;;5.75;68.38
6851;BME280;3464;42.728;23.296;2023-02-12T20:32:34;96889.97;;;5.68;69.25
6851;BME280;3464;42.728;23.296;2023-02-12T20:35:01;96895.12;;;5.63;69.39
6851;BME280;3464;42.728;23.296;2023-02-12T20:37:29;96900.94;;;5.78;68.67
6851;BME280;3464;42.728;23.296;2023-02-12T20:39:58;96900.10;;;5.70;68.78
6851;BME280;3464;42.728;23.296;2023-02-12T20:42:26;96899.98;;;5.52;69.56
6851;BME280;3464;42.728;23.296;2023-02-12T20:44:53;96899.66;;;5.46;70.31
6851;BME280;3464;42.728;23.296;2023-02-12T20:47:20;96899.38;;;5.41;71.12
6851;BME280;3464;42.728;23.296;2023-02-12T20:49:46;96905.30;;;5.43;70.93
6851;BME280;3464;42.728;23.296;2023-02-12T20:52:13;96904.71;;;5.63;70.05
6851;BME280;3464;42.728;23.296;2023-02-12T20:54:39;96907.78;;;5.50;70.57
6851;BME280;3464;42.728;23.296;2023-02-12T20:57:06;96909.12;;;5.67;70.50
6851;BME280;3464;42.728;23.296;2023-02-12T20:59:32;96911.04;;;5.65;69.81
6851;BME280;3464;42.728;23.296;2023-02-12T21:01:59;96911.19;;;5.36;70.57
6851;BME280;3464;42.728;23.296;2023-02-12T21:04:25;96914.72;;;5.25;71.69
6851;BME280;3464;42.728;23.296;2023-02-12T21:06:53;96915.76;;;5.29;71.61
6851;BME280;3464;42.728;23.296;2023-02-12T21:09:19;96927.38;;;5.28;71.91
6851;BME280;3464;42.728;23.296;2023-02-12T21:11:46;96925.50;;;5.47;71.18
6851;BME280;3464;42.728;23.296;2023-02-12T21:14:13;96932.48;;;5.45;71.40
6851;BME280;3464;42.728;23.296;2023-02-12T21:16:40;96933.09;;;5.26;72.01
6851;BME280;3464;42.728;23.296;2023-02-12T21:19:07;96936.60;;;5.29;72.42
6851;BME280;3464;42.728;23.296;2023-02-12T21:21:35;96944.79;;;4.90;72.91
6851;BME280;3464;42.728;23.296;2023-02-12T21:24:02;96935.59;;;5.26;72.45
6851;BME280;3464;42.728;23.296;2023-02-12T21:26:28;96939.90;;;5.36;71.96
6851;BME280;3464;42.728;23.296;2023-02-12T21:28:55;96939.84;;;5.13;72.38
6851;BME280;3464;42.728;23.296;2023-02-12T21:31:22;96940.96;;;4.96;74.02
6851;BME280;3464;42.728;23.296;2023-02-12T21:33:48;96943.89;;;4.75;75.07
6851;BME280;3464;42.728;23.296;2023-02-12T21:36:16;96947.55;;;4.59;76.53
6851;BME280;3464;42.728;23.296;2023-02-12T21:38:43;96947.31;;;4.77;76.37
6851;BME280;3464;42.728;23.296;2023-02-12T21:41:10;96950.75;;;4.64;76.64
6851;BME280;3464;42.728;23.296;2023-02-12T21:43:35;96953.50;;;4.54;77.10
6851;BME280;3464;42.728;23.296;2023-02-12T21:46:02;96961.87;;;4.69;77.79
6851;BME280;3464;42.728;23.296;2023-02-12T21:48:28;96963.13;;;4.63;77.66
6851;BME280;3464;42.728;23.296;2023-02-12T21:50:55;96961.16;;;4.43;78.36
6851;BME280;3464;42.728;23.296;2023-02-12T21:53:22;96970.53;;;4.68;77.66
6851;BME280;3464;42.728;23.296;2023-02-12T21:55:49;96971.94;;;4.71;77.82
6851;BME280;3464;42.728;23.296;2023-02-12T21:58:16;96967.23;;;4.69;78.06
6851;BME280;3464;42.728;23.296;2023-02-12T22:00:42;96964.11;;;4.72;77.54
6851;BME280;3464;42.728;23.296;2023-02-12T22:03:08;96971.16;;;4.93;76.59
6851;BME280;3464;42.728;23.296;2023-02-12T22:05:35;96974.52;;;5.23;74.63
6851;BME280;3464;42.728;23.296;2023-02-12T22:08:02;96980.51;;;4.89;75.99
6851;BME280;3464;42.728;23.296;2023-02-12T22:10:29;96976.88;;;4.99;75.28
6851;BME280;3464;42.728;23.296;2023-02-12T22:12:55;96979.78;;;4.63;76.06
6851;BME280;3464;42.728;23.296;2023-02-12T22:15:22;96976.94;;;4.85;75.64
6851;BME280;3464;42.728;23.296;2023-02-12T22:17:48;96973.51;;;4.84;75.20
6851;BME280;3464;42.728;23.296;2023-02-12T22:20:15;96984.05;;;4.51;75.93
6851;BME280;3464;42.728;23.296;2023-02-12T22:22:42;96979.03;;;4.50;76.72
6851;BME280;3464;42.728;23.296;2023-02-12T22:25:08;96984.64;;;4.12;77.60
6851;BME280;3464;42.728;23.296;2023-02-12T22:27:35;96980.40;;;4.11;77.58
6851;BME280;3464;42.728;23.296;2023-02-12T22:30:01;96989.16;;;4.04;79.36
6851;BME280;3464;42.728;23.296;2023-02-12T22:32:28;96987.12;;;4.12;79.31
6851;BME280;3464;42.728;23.296;2023-02-12T22:34:54;96999.25;;;3.86;80.63
6851;BME280;3464;42.728;23.296;2023-02-12T22:37:21;96993.42;;;3.93;80.00
6851;BME280;3464;42.728;23.296;2023-02-12T22:39:47;96989.28;;;3.86;80.63
6851;BME280;3464;42.728;23.296;2023-02-12T22:42:14;97000.05;;;3.72;81.92
6851;BME280;3464;42.728;23.296;2023-02-12T22:44:41;96993.70;;;4.18;81.36
6851;BME280;3464;42.728;23.296;2023-02-12T22:47:07;96995.76;;;4.04;80.89
6851;BME280;3464;42.728;23.296;2023-02-12T22:49:34;96975.52;;;4.26;79.90
6851;BME280;3464;42.728;23.296;2023-02-12T22:52:01;96994.10;;;4.17;79.31
6851;BME280;3464;42.728;23.296;2023-02-12T22:54:27;96994.81;;;4.22;80.11
6851;BME280;3464;42.728;23.296;2023-02-12T22:56:54;97002.89;;;4.12;79.88
6851;BME280;3464;42.728;23.296;2023-02-12T22:59:21;96991.68;;;4.12;79.81
6851;BME280;3464;42.728;23.296;2023-02-12T23:01:48;96997.41;;;3.97;80.26
6851;BME280;3464;42.728;23.296;2023-02-12T23:04:16;96997.41;;;4.11;80.59
6851;BME280;3464;42.728;23.296;2023-02-12T23:06:42;96995.51;;;4.07;80.63
6851;BME280;3464;42.728;23.296;2023-02-12T23:09:10;96998.84;;;4.14;81.32
6851;BME280;3464;42.728;23.296;2023-02-12T23:11:36;97009.61;;;4.26;80.34
6851;BME280;3464;42.728;23.296;2023-02-12T23:14:03;97009.14;;;4.33;80.43
6851;BME280;3464;42.728;23.296;2023-02-12T23:16:30;97011.02;;;4.22;80.49
6851;BME280;3464;42.728;23.296;2023-02-12T23:18:57;97006.09;;;4.30;79.71
6851;BME280;3464;42.728;23.296;2023-02-12T23:21:24;97003.17;;;4.16;80.32
6851;BME280;3464;42.728;23.296;2023-02-12T23:23:50;97006.28;;;4.27;79.64
6851;BME280;3464;42.728;23.296;2023-02-12T23:26:17;97017.24;;;3.89;80.88
6851;BME280;3464;42.728;23.296;2023-02-12T23:28:44;97020.62;;;4.10;79.88
6851;BME280;3464;42.728;23.296;2023-02-12T23:31:11;97017.88;;;4.19;79.66
6851;BME280;3464;42.728;23.296;2023-02-12T23:33:38;97026.34;;;3.95;80.05
6851;BME280;3464;42.728;23.296;2023-02-12T23:36:04;97030.25;;;3.84;80.94
6851;BME280;3464;42.728;23.296;2023-02-12T23:38:31;97026.69;;;3.94;80.99
6851;BME280;3464;42.728;23.296;2023-02-12T23:40:57;97030.23;;;4.11;81.03
6851;BME280;3464;42.728;23.296;2023-02-12T23:43:24;97036.84;;;4.17;80.44
6851;BME280;3464;42.728;23.296;2023-02-12T23:45:51;97026.23;;;4.47;78.93
6851;BME280;3464;42.728;23.296;2023-02-12T23:48:18;97030.13;;;4.43;78.64
6851;BME280;3464;42.728;23.296;2023-02-12T23:50:45;97024.37;;;4.44;78.67
6851;BME280;3464;42.728;23.296;2023-02-12T23:53:11;97018.41;;;4.14;79.48
6851;BME280;3464;42.728;23.296;2023-02-12T23:55:38;97027.78;;;4.18;79.93
6851;BME280;3464;42.728;23.296;2023-02-12T23:58:05;97022.64;;;4.22;80.29
